createdAt,value
2022-09-12T00:02:28.442Z,19.26
2022-09-12T00:07:31.958Z,19.12
2022-09-12T00:12:35.373Z,19.20
2022-09-12T00:17:41.119Z,19.33
2022-09-12T00:22:44.909Z,19.24
2022-09-12T00:27:48.374Z,19.16
2022-09-12T00:32:54.852Z,19.08
2022-09-12T00:37:58.262Z,19.08
2022-09-12T00:43:01.796Z,19.14
2022-09-12T00:48:07.321Z,19.00
2022-09-12T00:53:10.855Z,18.94
2022-09-12T00:58:18.765Z,18.93
2022-09-12T01:03:25.166Z,18.95
2022-09-12T01:08:29.997Z,18.96
2022-09-12T01:13:35.124Z,18.81
2022-09-12T01:19:01.549Z,18.91
2022-09-12T01:24:23.205Z,18.94
2022-09-12T01:29:50.053Z,18.85
2022-09-12T01:35:06.991Z,18.77
2022-09-12T01:40:16.047Z,18.79
2022-09-12T01:45:25.922Z,18.72
2022-09-12T01:50:35.305Z,18.79
2022-09-12T01:55:45.268Z,18.71
2022-09-12T02:01:06.619Z,18.76
2022-09-12T02:06:18.318Z,18.68
2022-09-12T02:11:22.991Z,18.66
2022-09-12T02:16:33.196Z,18.72
2022-09-12T02:21:40.902Z,18.72
2022-09-12T02:26:49.410Z,18.61
2022-09-12T02:31:58.209Z,18.58
2022-09-12T02:37:14.229Z,18.65
2022-09-12T02:42:17.700Z,18.70
2022-09-12T02:47:28.594Z,18.60
2022-09-12T02:52:33.857Z,18.65
2022-09-12T02:57:37.250Z,18.51
2022-09-12T03:02:55.505Z,18.50
2022-09-12T03:08:14.456Z,18.52
2022-09-12T03:13:24.695Z,18.53
2022-09-12T03:18:40.648Z,18.56
2022-09-12T03:23:52.569Z,18.48
2022-09-12T03:28:57.539Z,18.45
2022-09-12T03:34:01.771Z,18.30
2022-09-12T03:39:06.561Z,18.32
2022-09-12T03:44:10.267Z,18.18
2022-09-12T03:49:13.881Z,18.12
2022-09-12T03:54:18.714Z,18.18
2022-09-12T03:59:22.132Z,18.20
2022-09-12T04:04:25.937Z,18.30
2022-09-12T04:09:30.790Z,18.32
2022-09-12T04:14:34.588Z,18.28
2022-09-12T04:19:38.385Z,18.34
2022-09-12T04:24:43.346Z,18.27
2022-09-12T04:29:46.783Z,18.29
2022-09-12T04:34:50.217Z,18.21
2022-09-12T04:39:58.017Z,18.19
2022-09-12T04:45:01.501Z,18.20
2022-09-12T04:50:08.126Z,18.09
2022-09-12T04:55:12.958Z,18.27
2022-09-12T05:00:16.744Z,18.27
2022-09-12T05:05:20.337Z,18.34
2022-09-12T05:10:25.201Z,18.20
2022-09-12T05:15:28.916Z,18.31
2022-09-12T05:20:32.354Z,18.43
2022-09-12T05:25:37.185Z,18.37
2022-09-12T05:30:40.624Z,18.43
2022-09-12T05:35:44.083Z,18.36
2022-09-12T05:40:48.861Z,18.45
2022-09-12T05:45:52.501Z,18.44
2022-09-12T05:51:01.587Z,18.53
2022-09-12T05:56:09.462Z,18.47
2022-09-12T06:01:14.823Z,18.61
2022-09-12T06:06:19.661Z,18.93
2022-09-12T06:11:28.134Z,19.17
2022-09-12T06:16:33.332Z,19.46
2022-09-12T06:21:37.950Z,19.75
2022-09-12T06:26:43.872Z,19.73
2022-09-12T06:31:47.478Z,20.06
2022-09-12T06:36:51.375Z,20.19
2022-09-12T06:41:56.243Z,20.38
2022-09-12T06:47:10.042Z,20.71
2022-09-12T06:52:13.437Z,20.88
2022-09-12T06:57:18.369Z,21.21
2022-09-12T07:02:21.845Z,21.30
2022-09-12T07:07:25.727Z,21.53
2022-09-12T07:12:30.714Z,21.75
2022-09-12T07:17:37.606Z,21.95
2022-09-12T07:22:41.498Z,22.23
2022-09-12T07:27:50.608Z,22.44
2022-09-12T07:32:54.897Z,22.73
2022-09-12T07:37:58.299Z,22.92
2022-09-12T07:43:03.093Z,23.12
2022-09-12T07:48:06.557Z,23.49
2022-09-12T07:53:10.034Z,23.63
2022-09-12T07:58:14.899Z,23.93
2022-09-12T08:03:18.892Z,23.92
2022-09-12T08:08:23.089Z,24.00
2022-09-12T08:13:28.009Z,24.28
2022-09-12T08:18:32.974Z,24.36
2022-09-12T08:23:36.445Z,24.17
2022-09-12T08:28:41.908Z,24.68
2022-09-12T08:33:45.568Z,24.74
2022-09-12T08:38:51.296Z,24.73
2022-09-12T08:44:07.080Z,25.03
2022-09-12T08:49:14.194Z,25.25
2022-09-12T08:54:23.101Z,25.47
2022-09-12T08:59:27.928Z,26.24
2022-09-12T09:04:44.017Z,26.25
2022-09-12T09:10:07.985Z,26.66
2022-09-12T09:15:41.304Z,26.75
2022-09-12T09:20:51.797Z,27.01
2022-09-12T09:25:59.833Z,27.38
2022-09-12T09:31:05.169Z,26.94
2022-09-12T09:36:22.544Z,27.15
2022-09-12T09:41:47.494Z,26.92
2022-09-12T09:46:55.872Z,26.55
2022-09-12T09:52:01.838Z,25.79
2022-09-12T09:57:05.501Z,26.02
2022-09-12T10:02:24.440Z,25.82
2022-09-12T10:07:29.187Z,25.15
2022-09-12T10:12:32.712Z,25.50
2022-09-12T10:17:46.168Z,25.05
2022-09-12T10:22:50.619Z,24.72
2022-09-12T10:27:56.579Z,26.84
2022-09-12T10:33:12.945Z,27.02
2022-09-12T10:38:22.762Z,27.61
2022-09-12T10:43:31.050Z,28.41
2022-09-12T10:48:36.310Z,28.71
2022-09-12T10:53:42.652Z,29.19
2022-09-12T10:59:04.852Z,28.32
2022-09-12T11:04:30.218Z,26.70
2022-09-12T11:09:41.569Z,27.52
2022-09-12T11:15:01.014Z,28.60
2022-09-12T11:20:32.635Z,28.13
2022-09-12T11:25:44.996Z,27.13
2022-09-12T11:31:01.157Z,25.95
2022-09-12T11:36:13.687Z,26.70
2022-09-12T11:41:24.874Z,27.52
2022-09-12T11:46:35.029Z,28.47
2022-09-12T11:51:45.522Z,29.31
2022-09-12T11:56:53.014Z,28.02
2022-09-12T12:02:00.688Z,26.08
2022-09-12T12:07:08.569Z,26.51
2022-09-12T12:12:19.549Z,26.25
2022-09-12T12:17:25.557Z,25.67
2022-09-12T12:22:31.443Z,25.88
2022-09-12T12:27:53.733Z,26.88
2022-09-12T12:33:00.747Z,25.72
2022-09-12T12:38:27.352Z,25.30
2022-09-12T12:43:32.740Z,25.12
2022-09-12T12:49:10.830Z,25.08
2022-09-12T12:54:46.866Z,25.09
2022-09-12T12:59:54.941Z,25.32
2022-09-12T13:05:01.309Z,25.16
2022-09-12T13:10:09.418Z,24.92
2022-09-12T13:15:53.035Z,25.17
2022-09-12T13:21:05.353Z,25.71
2022-09-12T13:26:14.006Z,26.46
2022-09-12T13:31:24.258Z,27.05
2022-09-12T13:36:45.991Z,26.21
2022-09-12T13:42:31.029Z,25.47
2022-09-12T13:47:39.642Z,24.88
2022-09-12T13:52:49.697Z,26.02
2022-09-12T13:57:59.901Z,26.22
2022-09-12T14:03:43.209Z,25.76
2022-09-12T14:08:48.487Z,25.63
2022-09-12T14:13:52.813Z,26.41
2022-09-12T14:18:59.833Z,26.51
2022-09-12T14:24:05.858Z,26.58
2022-09-12T14:29:10.265Z,26.47
2022-09-12T14:34:17.620Z,25.60
2022-09-12T14:39:25.816Z,25.03
2022-09-12T14:44:32.161Z,24.51
2022-09-12T14:49:38.665Z,24.24
2022-09-12T14:54:44.604Z,24.15
2022-09-12T14:59:48.053Z,24.22
2022-09-12T15:04:54.597Z,24.00
2022-09-12T15:10:00.258Z,23.61
2022-09-12T15:15:15.552Z,23.65
2022-09-12T15:20:20.530Z,23.39
2022-09-12T15:25:24.050Z,23.51
2022-09-12T15:30:28.037Z,23.38
2022-09-12T15:35:34.592Z,23.39
2022-09-12T15:40:37.983Z,23.32
2022-09-12T15:45:51.603Z,23.27
2022-09-12T15:51:01.461Z,23.23
2022-09-12T15:56:05.206Z,23.09
2022-09-12T16:01:11.281Z,22.96
2022-09-12T16:06:16.513Z,22.89
2022-09-12T16:11:22.662Z,22.44
2022-09-12T16:16:26.377Z,22.28
2022-09-12T16:21:31.982Z,22.27
2022-09-12T16:26:35.568Z,22.25
2022-09-12T16:31:40.150Z,22.21
2022-09-12T16:36:45.418Z,22.08
2022-09-12T16:41:48.800Z,22.04
2022-09-12T16:46:52.281Z,21.91
2022-09-12T16:51:57.106Z,21.77
2022-09-12T16:57:00.708Z,21.46
2022-09-12T17:02:04.502Z,21.20
2022-09-12T17:07:10.144Z,20.76
2022-09-12T17:12:13.918Z,20.61
2022-09-12T17:17:17.292Z,20.57
2022-09-12T17:22:22.117Z,20.32
2022-09-12T17:27:25.641Z,20.02
2022-09-12T17:32:29.344Z,19.57
2022-09-12T17:37:36.822Z,19.46
2022-09-12T17:42:41.001Z,19.36
2022-09-12T17:47:44.657Z,19.39
2022-09-12T17:52:49.476Z,19.45
2022-09-12T17:57:53.057Z,19.32
2022-09-12T18:02:56.496Z,19.10
2022-09-12T18:08:01.724Z,19.16
2022-09-12T18:13:05.168Z,19.13
2022-09-12T18:18:08.712Z,18.94
2022-09-12T18:23:13.684Z,18.99
2022-09-12T18:28:18.597Z,18.96
2022-09-12T18:33:24.084Z,18.86
2022-09-12T18:38:29.146Z,18.90
2022-09-12T18:43:33.018Z,19.00
2022-09-12T18:48:36.755Z,18.91
2022-09-12T18:53:42.764Z,18.94
2022-09-12T18:58:47.451Z,18.69
2022-09-12T19:03:52.265Z,18.62
2022-09-12T19:08:59.626Z,18.83
2022-09-12T19:14:05.756Z,18.91
2022-09-12T19:19:09.244Z,19.16
2022-09-12T19:24:14.911Z,19.25
2022-09-12T19:29:18.498Z,19.37
2022-09-12T19:34:22.067Z,19.52
2022-09-12T19:39:26.996Z,19.51
2022-09-12T19:44:31.888Z,19.53
2022-09-12T19:49:35.330Z,19.44
2022-09-12T19:54:40.128Z,19.38
2022-09-12T19:59:45.202Z,19.15
2022-09-12T20:04:48.668Z,19.03
2022-09-12T20:09:55.096Z,18.87
2022-09-12T20:14:58.771Z,18.97
2022-09-12T20:20:02.327Z,18.99
2022-09-12T20:25:08.955Z,19.15
2022-09-12T20:30:14.474Z,18.88
2022-09-12T20:35:18.518Z,18.70
2022-09-12T20:40:23.902Z,18.58
2022-09-12T20:45:27.337Z,18.55
2022-09-12T20:50:30.953Z,18.43
2022-09-12T20:55:35.881Z,18.54
2022-09-12T21:00:39.772Z,18.49
2022-09-12T21:05:43.793Z,18.29
2022-09-12T21:10:48.662Z,18.26
2022-09-12T21:15:59.547Z,17.95
2022-09-12T21:21:03.293Z,17.90
2022-09-12T21:26:08.432Z,17.78
2022-09-12T21:31:12.165Z,17.78
2022-09-12T21:36:15.694Z,17.73
2022-09-12T21:41:20.799Z,17.78
2022-09-12T21:46:24.180Z,17.66
2022-09-12T21:51:27.887Z,17.67
2022-09-12T21:56:32.751Z,17.58
2022-09-12T22:01:36.203Z,17.61
2022-09-12T22:06:40.217Z,17.68
2022-09-12T22:11:45.673Z,17.81
2022-09-12T22:16:49.827Z,17.50
2022-09-12T22:22:11.053Z,17.34
2022-09-12T22:27:15.890Z,17.37
2022-09-12T22:32:19.891Z,17.09
2022-09-12T22:37:23.406Z,16.99
2022-09-12T22:42:29.820Z,16.96
2022-09-12T22:47:33.255Z,16.69
2022-09-12T22:52:36.629Z,16.48
2022-09-12T22:57:41.712Z,16.40
2022-09-12T23:02:45.142Z,16.51
2022-09-12T23:07:48.887Z,16.60
2022-09-12T23:12:55.046Z,16.44
2022-09-12T23:17:58.923Z,16.22
2022-09-12T23:23:02.457Z,16.31
2022-09-12T23:28:07.874Z,16.43
2022-09-12T23:33:11.377Z,16.36
2022-09-12T23:38:15.270Z,16.46
2022-09-12T23:43:20.071Z,16.51
2022-09-12T23:48:23.550Z,16.49
2022-09-12T23:53:27.625Z,16.38
2022-09-12T23:58:32.488Z,16.35
